ADDS METAR Data INFO
IDs: Format: Raw Decoded Include TAF

Data at: 0315 UTC 22 Apr 2018

KPWC 220257Z AUTO 00000KT 10SM CLR 03/M03 A3035 RMK AO2
KPWC 220235Z AUTO 00000KT 10SM CLR 04/M02 A3034 RMK AO2
KPWC 220215Z AUTO 00000KT 10SM CLR 05/M02 A3034 RMK AO2
KPWC 220155Z AUTO 00000KT 10SM CLR 06/M02 A3034 RMK AO2
KPWC 220135Z AUTO 00000KT 10SM CLR 06/M01 A3034 RMK AO2
KPWC 220115Z AUTO 09003KT 10SM CLR 08/M01 A3033 RMK AO2
KPWC 220055Z AUTO 00000KT 10SM CLR 11/M02 A3033 RMK AO2
KPWC 220035Z AUTO 21003KT 10SM CLR 11/M02 A3033 RMK AO2
KPWC 220015Z AUTO 21003KT 10SM CLR 12/M02 A3032 RMK AO2
KPWC 212355Z AUTO 21000KT 10SM CLR 12/M02 A3032 RMK AO2
KPWC 212335Z AUTO 21003KT 10SM CLR 13/M02 A3032 RMK AO2
KPWC 212315Z AUTO 00000KT 10SM CL 13/M02 A3032 RMK AO2
KPWC 212255Z AUTO 21000KT 10SM CLR 13/M01 A3033 RMK AO2
KPWC 212235Z AUTO 20003KT 10SM CLR 13/M01 A3033 RMK AO2
KPWC 212215Z AUTO 00000KT 10SM CLR 13/M01 A3033 RMK AO2
KPWC 212155Z AUTO 29000KT 10SM CLR 12/M02 A3034 RMK AO2
KPWC 212135Z AUTO 19005KT 10SM CLR 13/M01 A3034 RMK AO2
KPWC 212115Z AUTO 19000KT 10SM CLR 12/M02 A3034 RMK AO2
KPWC 212055Z AUTO 22005KT 10SM CLR 12/M02 A3035 RMK AO2
KPWC 212035Z AUTO 19006KT 10SM CLR 13/M01 A3035 RMK AO2
KPWC 212015Z AUTO 22003KT 10SM CLR 12/M01 A3035 RMK AO2
KPWC 211955Z AUTO 00000KT 10SM CLR 12/M01 A3035 RMK AO2
KPWC 211935Z AUTO 15004KT 10SM CLR 12/M01 A3036 RMK AO2
KPWC 211915Z AUTO 20003KT 10SM CLR 11/M01 A3036 RMK AO2
KPWC 211855Z AUTO 00000KT 10SM CLR 11/M01 A3037 RMK AO2
KPWC 211835Z AUTO 10003KT 10SM CLR 11/M01 A3037 RMK AO2
KPWC 211815Z AUTO 16003KT 10SM CLR 11/M01 A3038 RMK AO2
KPWC 211755Z AUTO 19003KT 10SM CLR 11/M01 A3038 RMK AO2
KPWC 211735Z AUTO 14005KT 10SM CLR 11/M01 A3039 RMK AO2
KPWC 211715Z AUTO 13005KT 10SM CLR 10/M01 A3040 RMK AO2
KPWC 211655Z AUTO 14005KT 10SM CLR 09/M02 A3040 RMK AO2
KPWC 211636Z AUTO 17007KT 10SM CLR 09/M02 A3041 RMK AO2
KPWC 211615Z AUTO 19004KT 10SM CLR 09/M02 A3041 RMK AO2
KPWC 211555Z AUTO 17005KT 10SM CLR 08/M02 A3041 RMK AO2
KPWC 211535Z AUTO 00000KT 10SM CLR 08/M01 A3041 RMK AO2
KPWC 211515Z AUTO 00000KT 10SM CLR 07/M01 A3042 RMK AO2
KPWC 211455Z AUTO 00000KT 10SM CLR 06/M01 A3042 RMK AO2
KPWC 211435Z AUTO 00000KT 10SM CLR 05/M01 A3043 RMK AO2 LTG DSNT SW
KPWC 211415Z AUTO 00000KT 10SM CLR 04/M01 A3043 RMK AO2
KPWC 211355Z AUTO 15003KT 10SM CLR 03/M01 A3044 RMK AO2
KPWC 211335Z AUTO 00000KT 10SM CLR 01/M02 A3044 RMK AO2
KPWC 211315Z AUTO 00000KT 10SM CLR M01/M03 A3044 RMK AO2
KPWC 211255Z AUTO 00000KT 10SM CLR M01/M04 A3044 RMK AO2
KPWC 211235Z AUTO 00000KT 10SM CLR M02/M05 A3044 RMK AO2
KPWC 211215Z AUTO 00000KT 10SM CLR M04/M06 A3044 RMK AO2
KPWC 211155Z AUTO 00000KT 10SM CLR M05/M07 A3044 RMK AO2
KPWC 211135Z AUTO 00000KT 10SM CLR M05/M07 A3043 RMK AO2
KPWC 211118Z AUTO 00000KT 10SM CLR M05/M07 A3043 RMK AO2
KPWC 211055Z AUTO 00000KT 10SM CLR M05/M07 A3043 RMK AO2
KPWC 211035Z AUTO 00000KT 10SM CLR M05/M06 A3042 RMK AO2
KPWC 211016Z AUTO 00000KT 10SM CLR M04/M07 A3042 RMK AO2
KPWC 210955Z AUTO 00000KT 10SM CLR M04/M07 A3042 RMK AO2
KPWC 210935Z AUTO 00000KT 10SM CLR M04/M07 A3041 RMK AO2
KPWC 210916Z AUTO 00000KT 10SM CLR M04/M07 A3041 RMK AO2
KPWC 210855Z AUTO 00000KT 10SM CLR M04/M07 A3041 RMK AO2
KPWC 210835Z AUTO 00000KT 10SM CLR M03/M06 A3041 RMK AO2
KPWC 210815Z AUTO 00000KT 10SM CLR M03/M07 A3041 RMK AO2
KPWC 210755Z AUTO 00000KT 10SM CLR M03/M06 A3041 RMK AO2
KPWC 210735Z AUTO 00000KT 10SM CLR M03/M07 A3041 RMK AO2
KPWC 210715Z AUTO 00000KT 10SM CLR M03/M06 A3041 RMK AO2
KPWC 210655Z AUTO 00000KT 10SM CLR M03/M05 A3041 RMK AO2
KPWC 210635Z AUTO 00000KT 10SM CLR M03/M06 A3041 RMK AO2
KPWC 210615Z AUTO 00000KT 10SM CLR M02/M06 A3042 RMK AO2
KPWC 210555Z AUTO 00000KT 10SM CLR M02/M06 A3042 RMK AO2
KPWC 210535Z AUTO 00000KT 10SM CLR M02/M06 A3042 RMK AO2
KPWC 210515Z AUTO 00000KT 10SM CLR M01/M06 A3042 RMK AO2
KPWC 210456Z AUTO 00000KT 10SM CLR M01/M05 A3042 RMK AO2
KPWC 210435Z AUTO 00000KT 10SM CLR M01/M05 A3042 RMK AO2
KPWC 210415Z AUTO 00000KT 10SM CLR M01/M05 A3043 RMK AO2
KPWC 210355Z AUTO 00000KT 10SM CLR 00/M05 A3043 RMK AO2
KPWC 210335Z AUTO 00000KT 10SM CLR 02/M06 A3043 RMK AO2
KPWC 210315Z AUTO 00000KT 10SM CLR 02/M06 A3043 RMK AO2
KPWC 210255Z AUTO 00000KT 10SM CLR 02/M05 A3043 RMK AO2
KPWC 210235Z AUTO 00000KT 10SM CLR 03/M05 A3043 RMK AO2
KPWC 210215Z AUTO 00000KT 10SM CLR 04/M05 A3042 RMK AO2
KPWC 210155Z AUTO 00000KT 10SM CLR 06/M06 A3041 RMK AO2
KPWC 210135Z AUTO 21003KT 10SM CLR 06/M06 A3041 RMK AO2
KPWC 210115Z AUTO 20004KT 10SM CLR 07/M06 A3041 RMK AO2
KPWC 210055Z AUTO 19004KT 10SM CLR 07/M06 A3041 RMK AO2
KPWC 210035Z AUTO 19003KT 10SM CLR 08/M05 A3041 RMK AO2
KPWC 210015Z AUTO 20005KT 10SM CLR 09/M05 A3041 RMK AO2
KPWC 202355Z AUTO 19004KT 10SM CLR 10/M05 A3041 RMK AO2
KPWC 202335Z AUTO 00000KT 10SM CLR 10/M05 A3041 RMK AO2
KPWC 202315Z AUTO 18003KT 10SM CLR 11/M05 A3040 RMK AO2
KPWC 202255Z AUTO 18005KT 10SM CLR 11/M04 A3040 RMK AO2 LTG DSNT S
KPWC 202235Z AUTO 19003KT 10SM CLR 11/M05 A3039 RMK AO2
KPWC 202215Z AUTO 00000KT 10SM CLR 11/M04 A3039 RMK AO2
KPWC 202155Z AUTO 17007KT 10SM CLR 11/M04 A3040 RMK AO2
KPWC 202135Z AUTO 20008KT 10SM CLR 11/M03 A3040 RMK AO2
KPWC 202115Z AUTO 09003KT 10SM CLR 11/M03 A3040 RMK AO2
KPWC 202055Z AUTO 23004KT 10SM CLR 11/M03 A3041 RMK AO2
KPWC 202035Z AUTO 00000KT 10SM CLR 11/M03 A3041 RMK AO2
KPWC 202015Z AUTO 12005KT 10SM CLR 11/M03 A3042 RMK AO2
KPWC 201955Z AUTO 21007KT 10SM CLR 11/M02 A3043 RMK AO2
KPWC 201935Z AUTO 21003KT 10SM CLR 10/M03 A3043 RMK AO2
KPWC 201915Z AUTO 00000KT 10SM CLR 11/M02 A3043 RMK AO2
KPWC 201855Z AUTO 20006KT 10SM CLR 11/M02 A3043 RMK AO2
KPWC 201835Z AUTO 19007KT 10SM CLR 11/M02 A3044 RMK AO2
KPWC 201815Z AUTO 21003KT 10SM CLR 10/M02 A3044 RMK AO2
KPWC 201755Z AUTO 00000KT 10SM CLR 10/M03 A3045 RMK AO2
KPWC 201735Z AUTO 18007KT 164V224 10SM CLR 10/M02 A3045 RMK AO2
KPWC 201716Z AUTO 19003KT 10SM CLR 10/M02 A3045 RMK AO2
KPWC 201655Z AUTO 20003KT 10SM CLR 10/M01 A3046 RMK AO2
KPWC 201635Z AUTO 00000KT 10SM CLR 09/M02 A3046 RMK AO2
KPWC 201615Z AUTO 24003KT 10SM CLR 09/M02 A3046 RMK AO2
KPWC 201555Z AUTO 00000KT 10SM CLR 08/M02 A3046 RMK AO2
KPWC 201535Z AUTO 24003KT 10SM CLR 08/M02 A3046 RMK AO2
KPWC 201516Z AUTO 00000KT 10SM CLR 07/M02 A3047 RMK AO2